Chulafinnee, Alabama
Current Conditions -  °F | °C
As of 3:53 AM on Thursday 23 Oct 2014 (Local Time) from KANB Reporting Station
Clear Clear  
Wind Chill: 41°   Ceiling: Unl
Heat Index: 41°   Visibility: 10mi
Dew Point: 38°   Wind: 3mph
Humidity: 89%   Direction: 80°E
Pressure: 30.13"   Gusts: NA
Location:  33.6126°N, 85.6035°W
Report Text: KANB 230853Z AUTO 08003KT 10SM CLR 05/03 A3013 RMK AO2 SLP203 T00500033 55004
Loading
Personal Weather Stations






























Interactive Weather Map
Tropical Storm Tracking
New forecast layout! Learn more

10-Day Weather Forecast

Advertisements
Track Severe Weather on mobile